Time;durP1;ratioP1;P1;durP2;ratioP2;P2;SDS_P1;SDS_P2;PMS_P1;PMS_P2;Temp;Humidity;BMP_temperature;BMP_pressure;BME280_temperature;BME280_humidity;BME280_pressure;Samples;Min_cycle;Max_cycle;Signal;HPM_P1;HPM_P2
2024/03/14 00:03:19;;;;;;;41.63;28.20;;;;;;;;;;12935530;22;20362;-90
2024/03/14 00:08:21;;;;;;;40.87;27.57;;;;;;;;;;12933664;22;20468;-90
2024/03/14 00:13:24;;;;;;;43.92;27.90;;;;;;;;;;12934593;22;20409;-90
2024/03/14 00:18:27;;;;;;;42.08;26.90;;;;;;;;;;12934173;22;20448;-90
2024/03/14 00:23:30;;;;;;;41.28;26.38;;;;;;;;;;12934391;22;20366;-90
2024/03/14 00:28:33;;;;;;;44.53;27.08;;;;;;;;;;12934860;22;20660;-90
2024/03/14 00:33:35;;;;;;;41.95;26.95;;;;;;;;;;12934129;22;20386;-89
2024/03/14 00:38:39;;;;;;;40.72;26.92;;;;;;;;;;12932607;22;20366;-90
2024/03/14 00:43:42;;;;;;;42.22;26.73;;;;;;;;;;12934941;22;20359;-90
2024/03/14 00:48:44;;;;;;;44.00;27.30;;;;;;;;;;12933601;22;20367;-90
2024/03/14 00:53:47;;;;;;;40.60;26.13;;;;;;;;;;12933680;22;20386;-89
2024/03/14 00:58:49;;;;;;;41.15;26.48;;;;;;;;;;12929315;22;20371;-90
2024/03/14 01:03:51;;;;;;;38.85;25.98;;;;;;;;;;12928647;22;20749;-90
2024/03/14 01:08:55;;;;;;;39.88;26.10;;;;;;;;;;12931098;22;20401;-89
2024/03/14 01:13:57;;;;;;;41.88;26.67;;;;;;;;;;12932230;22;20420;-90
2024/03/14 01:18:59;;;;;;;40.78;26.58;;;;;;;;;;12932657;22;20362;-90
2024/03/14 01:24:01;;;;;;;43.35;26.05;;;;;;;;;;12932642;22;20416;-90
2024/03/14 01:29:06;;;;;;;39.47;25.60;;;;;;;;;;12931824;22;20904;-90
2024/03/14 01:34:09;;;;;;;39.38;24.70;;;;;;;;;;12933240;22;20378;-90
2024/03/14 01:39:11;;;;;;;41.83;26.75;;;;;;;;;;12931428;22;20363;-90
2024/03/14 01:44:13;;;;;;;41.55;26.25;;;;;;;;;;12933258;22;20370;-90
2024/03/14 01:49:16;;;;;;;42.10;26.42;;;;;;;;;;12932800;22;20370;-90
2024/03/14 01:54:18;;;;;;;39.10;25.00;;;;;;;;;;12935370;22;20418;-90
2024/03/14 01:59:20;;;;;;;39.38;25.40;;;;;;;;;;12936624;22;20668;-86
2024/03/14 02:04:23;;;;;;;38.35;25.42;;;;;;;;;;12935271;22;20428;-90
2024/03/14 02:09:28;;;;;;;41.45;25.30;;;;;;;;;;12935193;22;20378;-90
2024/03/14 02:14:30;;;;;;;39.17;25.13;;;;;;;;;;12936003;22;20382;-88
2024/03/14 02:19:33;;;;;;;43.15;26.23;;;;;;;;;;12934650;22;20758;-90
2024/03/14 02:24:35;;;;;;;40.20;24.80;;;;;;;;;;12936023;22;20363;-90
2024/03/14 02:29:38;;;;;;;50.45;27.05;;;;;;;;;;12935949;22;20363;-90
2024/03/14 02:34:40;;;;;;;50.70;27.92;;;;;;;;;;12935179;22;20444;-90
2024/03/14 02:39:44;;;;;;;48.33;27.83;;;;;;;;;;12934428;22;20830;-90
2024/03/14 02:44:47;;;;;;;46.85;26.73;;;;;;;;;;12935397;22;20401;-89
2024/03/14 02:49:51;;;;;;;45.45;25.77;;;;;;;;;;12935520;22;20367;-91
2024/03/14 02:54:55;;;;;;;45.30;26.45;;;;;;;;;;12934495;22;20921;-90
2024/03/14 02:59:58;;;;;;;39.97;25.17;;;;;;;;;;12934136;22;20362;-90
2024/03/14 03:05:00;;;;;;;38.30;24.75;;;;;;;;;;12934896;22;20448;-90
2024/03/14 03:10:05;;;;;;;38.80;23.63;;;;;;;;;;12933481;22;20432;-90
2024/03/14 03:15:09;;;;;;;33.08;21.38;;;;;;;;;;12936169;22;20383;-90
2024/03/14 03:20:11;;;;;;;35.83;21.33;;;;;;;;;;12934259;22;20359;-89
2024/03/14 03:25:14;;;;;;;33.13;19.97;;;;;;;;;;12934446;22;20405;-90
2024/03/14 03:30:16;;;;;;;48.28;22.23;;;;;;;;;;12934775;22;20363;-90
2024/03/14 03:35:21;;;;;;;47.42;23.15;;;;;;;;;;12934106;22;20858;-90
2024/03/14 03:40:23;;;;;;;53.78;25.30;;;;;;;;;;12934807;22;20405;-90
2024/03/14 03:45:27;;;;;;;56.87;24.47;;;;;;;;;;12931886;22;20374;-90
2024/03/14 03:50:29;;;;;;;48.25;24.38;;;;;;;;;;12933994;22;20415;-90
2024/03/14 03:55:32;;;;;;;52.20;24.08;;;;;;;;;;12954971;22;20374;-91
2024/03/14 04:00:41;;;;;;;43.43;22.50;;;;;;;;;;12954015;22;20417;-90
2024/03/14 04:05:43;;;;;;;50.13;23.07;;;;;;;;;;12936874;22;20436;-89
2024/03/14 04:10:45;;;;;;;44.63;21.47;;;;;;;;;;12934043;22;20401;-90
2024/03/14 04:15:48;;;;;;;43.33;20.40;;;;;;;;;;12932713;22;20804;-90
2024/03/14 04:20:50;;;;;;;40.20;20.73;;;;;;;;;;12933518;22;20366;-90
2024/03/14 04:25:54;;;;;;;44.70;20.17;;;;;;;;;;12932501;22;20572;-90
2024/03/14 04:30:56;;;;;;;49.35;22.23;;;;;;;;;;12933974;22;20409;-90
2024/03/14 04:35:58;;;;;;;45.30;20.38;;;;;;;;;;12932141;22;20436;-90
2024/03/14 04:41:01;;;;;;;39.33;19.27;;;;;;;;;;12932204;22;20648;-90
2024/03/14 04:46:03;;;;;;;34.70;19.42;;;;;;;;;;12932930;22;20371;-90
2024/03/14 04:51:05;;;;;;;33.92;18.88;;;;;;;;;;12932218;22;20370;-90
2024/03/14 04:56:08;;;;;;;32.65;19.17;;;;;;;;;;12931901;22;20413;-89
2024/03/14 05:01:10;;;;;;;30.90;18.80;;;;;;;;;;12932818;22;20420;-88
2024/03/14 05:06:13;;;;;;;33.72;18.55;;;;;;;;;;12931582;22;20433;-90
2024/03/14 05:11:15;;;;;;;28.85;17.42;;;;;;;;;;12931880;22;20420;-89
2024/03/14 05:16:17;;;;;;;34.33;18.00;;;;;;;;;;12930688;22;20382;-90
2024/03/14 05:21:20;;;;;;;33.10;18.00;;;;;;;;;;12929693;22;20415;-90
2024/03/14 05:26:22;;;;;;;29.33;17.53;;;;;;;;;;12929172;22;20462;-90
2024/03/14 05:31:25;;;;;;;31.95;17.27;;;;;;;;;;12927025;22;20457;-90
2024/03/14 05:36:27;;;;;;;32.78;18.15;;;;;;;;;;12923674;22;20440;-90
2024/03/14 05:41:30;;;;;;;29.90;17.45;;;;;;;;;;12929780;22;20370;-90
2024/03/14 05:46:32;;;;;;;30.75;17.48;;;;;;;;;;12928518;22;20367;-90
2024/03/14 05:51:35;;;;;;;38.60;20.05;;;;;;;;;;12930522;22;20461;-90
2024/03/14 05:56:37;;;;;;;36.10;19.48;;;;;;;;;;12924994;22;20379;-90
2024/03/14 06:01:40;;;;;;;31.07;17.73;;;;;;;;;;12945645;22;20436;-89
2024/03/14 06:06:42;;;;;;;29.35;17.45;;;;;;;;;;12930501;22;20393;-89
2024/03/14 06:11:45;;;;;;;28.85;16.67;;;;;;;;;;12931191;22;20358;-89
2024/03/14 06:16:49;;;;;;;28.25;17.08;;;;;;;;;;12930962;22;20436;-89
2024/03/14 06:21:51;;;;;;;27.75;15.55;;;;;;;;;;12931340;22;20428;-89
2024/03/14 06:26:53;;;;;;;29.80;17.10;;;;;;;;;;12931633;22;20363;-89
2024/03/14 06:31:56;;;;;;;26.23;16.45;;;;;;;;;;12933301;22;20397;-88
2024/03/14 06:36:59;;;;;;;26.48;16.63;;;;;;;;;;12934591;22;20854;-89
2024/03/14 06:42:01;;;;;;;26.47;15.97;;;;;;;;;;12934799;22;20371;-89
2024/03/14 06:47:03;;;;;;;23.73;15.13;;;;;;;;;;12933435;22;20397;-89
2024/03/14 06:52:08;;;;;;;23.20;13.30;;;;;;;;;;12950206;22;20358;-89
2024/03/14 06:57:10;;;;;;;19.48;11.85;;;;;;;;;;12929480;22;20457;-89
2024/03/14 07:02:16;;;;;;;16.92;11.23;;;;;;;;;;12923603;22;20434;-81
2024/03/14 07:07:19;;;;;;;17.27;11.48;;;;;;;;;;12954666;22;20867;-89
2024/03/14 07:12:21;;;;;;;19.80;12.20;;;;;;;;;;12928138;22;20429;-89
2024/03/14 07:17:24;;;;;;;19.08;11.50;;;;;;;;;;12929245;22;20413;-89
2024/03/14 07:22:27;;;;;;;20.52;12.25;;;;;;;;;;12929680;22;20363;-89
2024/03/14 07:27:30;;;;;;;20.37;12.13;;;;;;;;;;12933238;22;20885;-89
2024/03/14 07:32:35;;;;;;;19.85;12.43;;;;;;;;;;12929600;22;20428;-88
2024/03/14 07:37:37;;;;;;;19.92;12.85;;;;;;;;;;12930797;22;20383;-89
2024/03/14 07:42:39;;;;;;;23.92;13.13;;;;;;;;;;12929957;22;20401;-89
2024/03/14 07:47:42;;;;;;;20.60;12.65;;;;;;;;;;12931980;22;20371;-89
2024/03/14 07:52:45;;;;;;;20.80;13.07;;;;;;;;;;12930024;22;20843;-89
2024/03/14 07:57:47;;;;;;;21.10;13.20;;;;;;;;;;12931634;22;20676;-88
2024/03/14 08:02:54;;;;;;;18.57;12.60;;;;;;;;;;12930131;22;20367;-88
2024/03/14 08:07:56;;;;;;;20.98;13.55;;;;;;;;;;12933578;22;20370;-88
2024/03/14 08:12:59;;;;;;;21.05;14.13;;;;;;;;;;12930237;22;20397;-89
2024/03/14 08:18:01;;;;;;;22.27;14.07;;;;;;;;;;12928179;22;20367;-89
2024/03/14 08:23:04;;;;;;;21.27;14.60;;;;;;;;;;12929366;22;20436;-89
2024/03/14 08:28:06;;;;;;;19.45;12.82;;;;;;;;;;12951272;22;20425;-87
2024/03/14 08:33:09;;;;;;;20.30;12.32;;;;;;;;;;12929449;22;20428;-89
2024/03/14 08:38:13;;;;;;;17.58;11.98;;;;;;;;;;12930468;22;20366;-81
2024/03/14 08:43:16;;;;;;;19.13;11.87;;;;;;;;;;12931203;22;20358;-89
2024/03/14 08:48:18;;;;;;;20.67;12.20;;;;;;;;;;12931205;22;20677;-89
2024/03/14 08:53:22;;;;;;;19.80;12.95;;;;;;;;;;12930646;22;20358;-89
2024/03/14 08:58:26;;;;;;;16.58;11.95;;;;;;;;;;12943366;22;20362;-88
2024/03/14 09:03:29;;;;;;;16.55;11.32;;;;;;;;;;12932813;22;20424;-89
2024/03/14 09:08:31;;;;;;;17.90;11.25;;;;;;;;;;12929765;22;20367;-89
2024/03/14 09:13:35;;;;;;;18.37;11.43;;;;;;;;;;12929798;22;20416;-89
2024/03/14 09:18:38;;;;;;;17.00;10.55;;;;;;;;;;12930093;22;20370;-89
2024/03/14 09:23:40;;;;;;;16.30;11.23;;;;;;;;;;12932179;22;20362;-88
2024/03/14 09:28:43;;;;;;;17.33;10.37;;;;;;;;;;12929988;22;20382;-90
2024/03/14 09:33:46;;;;;;;18.60;10.13;;;;;;;;;;12931191;22;20382;-89
2024/03/14 09:38:48;;;;;;;20.08;10.43;;;;;;;;;;12930122;22;20472;-89
2024/03/14 09:43:51;;;;;;;15.73;10.13;;;;;;;;;;12930038;22;20412;-90
2024/03/14 09:48:56;;;;;;;13.48;9.95;;;;;;;;;;12930335;22;20363;-90
2024/03/14 09:53:58;;;;;;;14.55;9.15;;;;;;;;;;12931587;22;20408;-89
2024/03/14 09:59:00;;;;;;;15.00;9.83;;;;;;;;;;12929318;22;20367;-89
2024/03/14 10:04:03;;;;;;;14.53;10.20;;;;;;;;;;12929225;22;20413;-89
2024/03/14 10:09:10;;;;;;;16.90;10.20;;;;;;;;;;12933239;22;20752;-90
2024/03/14 10:14:17;;;;;;;17.17;10.70;;;;;;;;;;12935388;22;20382;-88
2024/03/14 10:19:19;;;;;;;15.45;11.38;;;;;;;;;;12935132;22;20440;-89
2024/03/14 10:24:22;;;;;;;18.83;11.77;;;;;;;;;;12932886;22;20416;-90
2024/03/14 10:29:29;;;;;;;18.02;11.82;;;;;;;;;;12934152;22;20842;-89
2024/03/14 10:34:32;;;;;;;17.27;11.67;;;;;;;;;;12934273;22;20451;-87
2024/03/14 10:39:34;;;;;;;20.40;13.30;;;;;;;;;;12935509;22;20456;-89
2024/03/14 10:44:38;;;;;;;21.80;13.57;;;;;;;;;;12932995;22;20371;-90
2024/03/14 10:49:40;;;;;;;22.88;14.23;;;;;;;;;;12933353;22;20896;-90
2024/03/14 10:54:44;;;;;;;24.37;15.50;;;;;;;;;;12955249;22;20428;-90
2024/03/14 10:59:47;;;;;;;30.07;18.37;;;;;;;;;;12954881;22;20354;-89
2024/03/14 11:04:50;;;;;;;32.60;19.35;;;;;;;;;;12955386;22;20443;-90
2024/03/14 11:09:53;;;;;;;33.65;20.42;;;;;;;;;;12933691;22;20727;-90
2024/03/14 11:14:59;;;;;;;35.00;20.25;;;;;;;;;;12933418;22;20382;-90
2024/03/14 11:20:10;;;;;;;35.45;21.33;;;;;;;;;;12934558;22;20362;-90
2024/03/14 11:25:13;;;;;;;37.23;20.27;;;;;;;;;;12935507;22;20374;-89
2024/03/14 11:30:19;;;;;;;36.47;20.10;;;;;;;;;;12933567;22;20378;-88
2024/03/14 11:35:35;;;;;;;34.07;19.87;;;;;;;;;;12934896;22;20861;-88
2024/03/14 12:36:41;;;;;;;35.60;20.97;;;;;;;;;;12900153;23;20388;-90
2024/03/14 12:41:43;;;;;;;35.33;19.67;;;;;;;;;;12975451;22;20691;-89
2024/03/14 12:46:47;;;;;;;36.30;19.90;;;;;;;;;;12925160;22;20371;-89
2024/03/14 12:51:55;;;;;;;33.65;17.88;;;;;;;;;;12926921;22;20363;-89
2024/03/14 12:56:57;;;;;;;31.83;17.70;;;;;;;;;;12950456;22;20382;-89
2024/03/14 13:02:05;;;;;;;35.92;19.33;;;;;;;;;;12928871;22;20830;-89
2024/03/14 13:07:12;;;;;;;30.90;18.50;;;;;;;;;;12929860;22;20906;-89
2024/03/14 13:12:19;;;;;;;30.30;18.52;;;;;;;;;;12923481;22;20362;-90
2024/03/14 13:17:21;;;;;;;35.10;19.23;;;;;;;;;;12928793;22;20378;-88
2024/03/14 13:22:24;;;;;;;30.77;17.47;;;;;;;;;;12949139;22;20355;-89
2024/03/14 13:27:26;;;;;;;27.58;17.50;;;;;;;;;;12924087;22;20443;-89
2024/03/14 13:32:28;;;;;;;33.47;19.70;;;;;;;;;;12921616;22;20400;-90
2024/03/14 13:37:31;;;;;;;29.53;17.60;;;;;;;;;;12923334;22;20390;-89
2024/03/14 13:42:34;;;;;;;32.20;18.27;;;;;;;;;;12928872;22;20362;-89
2024/03/14 13:47:36;;;;;;;29.43;17.43;;;;;;;;;;12933878;22;20405;-88
2024/03/14 13:52:39;;;;;;;28.83;16.67;;;;;;;;;;12934255;22;20737;-87
2024/03/14 13:57:41;;;;;;;25.85;16.27;;;;;;;;;;12933391;22;20382;-88
2024/03/14 14:02:44;;;;;;;28.70;17.63;;;;;;;;;;12935420;22;20396;-88
2024/03/14 14:07:46;;;;;;;25.90;16.87;;;;;;;;;;12931454;22;20366;-88
2024/03/14 14:12:48;;;;;;;26.15;16.42;;;;;;;;;;12931766;22;20826;-87
2024/03/14 14:17:51;;;;;;;27.40;16.23;;;;;;;;;;12932681;22;20432;-88
2024/03/14 14:22:53;;;;;;;25.23;15.85;;;;;;;;;;12953875;22;20366;-88
2024/03/14 14:27:55;;;;;;;28.83;16.35;;;;;;;;;;12933888;22;20363;-88
2024/03/14 14:32:58;;;;;;;25.77;17.05;;;;;;;;;;12933218;22;20374;-88
2024/03/14 14:38:00;;;;;;;26.40;17.20;;;;;;;;;;12953780;22;20896;-88
2024/03/14 14:43:02;;;;;;;27.52;18.23;;;;;;;;;;12932499;22;20370;-88
2024/03/14 14:48:05;;;;;;;27.42;18.30;;;;;;;;;;12934812;22;20889;-88
2024/03/14 14:53:08;;;;;;;30.92;18.77;;;;;;;;;;12932021;22;20679;-88
2024/03/14 14:58:12;;;;;;;25.65;17.83;;;;;;;;;;12933557;22;20378;-88
2024/03/14 15:03:14;;;;;;;29.75;18.08;;;;;;;;;;12933939;22;20366;-88
2024/03/14 15:08:17;;;;;;;35.20;22.48;;;;;;;;;;12930663;22;20459;-86
2024/03/14 15:13:21;;;;;;;28.58;18.27;;;;;;;;;;12931657;22;20429;-87
2024/03/14 15:18:24;;;;;;;27.37;17.93;;;;;;;;;;12931434;22;20378;-88
2024/03/14 15:23:27;;;;;;;27.73;18.38;;;;;;;;;;12932567;22;20367;-90
2024/03/14 15:28:30;;;;;;;26.10;18.20;;;;;;;;;;12932177;22;20358;-90
2024/03/14 15:33:32;;;;;;;28.58;17.98;;;;;;;;;;12930902;22;20367;-90
2024/03/14 15:38:35;;;;;;;27.73;17.88;;;;;;;;;;12930781;22;20390;-89
2024/03/14 15:43:37;;;;;;;30.73;18.85;;;;;;;;;;12930822;22;20420;-89
2024/03/14 15:48:39;;;;;;;30.40;19.33;;;;;;;;;;12928559;22;20370;-88
2024/03/14 15:53:42;;;;;;;32.10;19.33;;;;;;;;;;12930734;22;20429;-88
2024/03/14 15:58:45;;;;;;;29.58;18.98;;;;;;;;;;12951964;22;20378;-88
2024/03/14 16:03:48;;;;;;;29.77;20.23;;;;;;;;;;12930167;22;20896;-89
2024/03/14 16:08:51;;;;;;;28.10;17.77;;;;;;;;;;12950036;22;20929;-89
2024/03/14 16:13:56;;;;;;;30.48;18.30;;;;;;;;;;12924059;22;20447;-89
2024/03/14 16:18:59;;;;;;;29.20;17.77;;;;;;;;;;12917557;22;20386;-89
2024/03/14 16:24:04;;;;;;;32.37;19.53;;;;;;;;;;12912800;22;20378;-90
2024/03/14 16:29:08;;;;;;;26.52;17.30;;;;;;;;;;12919362;22;20432;-91
2024/03/14 16:34:10;;;;;;;29.27;18.42;;;;;;;;;;12934541;22;20374;-90
2024/03/14 16:39:18;;;;;;;29.13;19.17;;;;;;;;;;12914275;22;20440;-91
2024/03/14 16:44:20;;;;;;;30.52;20.88;;;;;;;;;;12918973;22;20371;-91
2024/03/14 16:49:23;;;;;;;29.80;20.20;;;;;;;;;;12918983;22;20371;-91
2024/03/14 16:54:29;;;;;;;29.98;19.30;;;;;;;;;;12919218;22;20370;-87
2024/03/14 16:59:32;;;;;;;30.90;19.67;;;;;;;;;;12917710;22;20378;-88
2024/03/14 17:04:34;;;;;;;30.38;19.75;;;;;;;;;;12917071;22;20379;-90
2024/03/14 17:09:36;;;;;;;28.93;18.33;;;;;;;;;;12917222;22;20835;-87
2024/03/14 17:14:39;;;;;;;29.48;18.63;;;;;;;;;;12916511;22;20382;-88
2024/03/14 17:19:41;;;;;;;31.83;19.23;;;;;;;;;;12917721;22;20440;-89
2024/03/14 17:24:43;;;;;;;30.27;18.10;;;;;;;;;;12915653;22;20766;-89
2024/03/14 17:29:46;;;;;;;29.47;18.47;;;;;;;;;;12918963;22;20443;-86
2024/03/14 17:34:49;;;;;;;30.55;19.90;;;;;;;;;;12920529;22;20780;-89
2024/03/14 17:39:51;;;;;;;30.73;19.43;;;;;;;;;;12918068;22;20421;-91
2024/03/14 17:44:53;;;;;;;31.05;19.60;;;;;;;;;;12920265;22;20379;-91
2024/03/14 17:49:56;;;;;;;35.05;21.80;;;;;;;;;;12917357;22;20397;-90
2024/03/14 17:54:58;;;;;;;31.30;19.63;;;;;;;;;;12920870;22;20429;-90
2024/03/14 18:00:00;;;;;;;32.83;19.30;;;;;;;;;;12920047;22;20386;-91
2024/03/14 18:05:08;;;;;;;28.88;18.40;;;;;;;;;;12917276;22;20715;-89
2024/03/14 18:10:13;;;;;;;29.03;17.57;;;;;;;;;;12921419;22;20378;-88
2024/03/14 18:15:16;;;;;;;30.13;18.60;;;;;;;;;;12943430;22;20375;-90
2024/03/14 18:20:23;;;;;;;26.43;17.07;;;;;;;;;;12927812;22;20382;-90
2024/03/14 18:25:25;;;;;;;27.58;17.38;;;;;;;;;;12928010;22;20371;-90
2024/03/14 18:30:28;;;;;;;31.20;18.83;;;;;;;;;;12931078;22;20819;-88
2024/03/14 18:35:31;;;;;;;28.87;18.13;;;;;;;;;;12930955;22;20363;-91
2024/03/14 18:40:35;;;;;;;30.10;16.95;;;;;;;;;;12928243;22;20382;-91
2024/03/14 18:45:37;;;;;;;24.53;15.93;;;;;;;;;;12932605;22;20401;-91
2024/03/14 18:50:40;;;;;;;23.98;15.43;;;;;;;;;;12928924;22;20371;-90
2024/03/14 18:55:42;;;;;;;24.13;15.40;;;;;;;;;;12926424;22;20881;-91
2024/03/14 19:00:44;;;;;;;26.10;16.37;;;;;;;;;;12928452;22;20359;-91
2024/03/14 19:05:47;;;;;;;25.20;16.17;;;;;;;;;;12925926;22;20401;-90
2024/03/14 19:10:49;;;;;;;23.58;15.80;;;;;;;;;;12925783;22;20375;-88
2024/03/14 19:15:56;;;;;;;23.73;15.73;;;;;;;;;;12925833;22;20382;-91
2024/03/14 19:20:59;;;;;;;22.77;15.52;;;;;;;;;;12926711;22;20374;-90
2024/03/14 19:26:02;;;;;;;23.52;14.50;;;;;;;;;;12924379;22;20367;-91
2024/03/14 19:31:06;;;;;;;22.23;14.43;;;;;;;;;;12924624;22;20412;-91
2024/03/14 19:36:08;;;;;;;22.98;15.18;;;;;;;;;;12924812;22;20409;-90
2024/03/14 19:41:11;;;;;;;23.05;15.45;;;;;;;;;;12920672;22;20421;-89
2024/03/14 19:46:14;;;;;;;21.77;14.18;;;;;;;;;;12931553;22;20367;-89
2024/03/14 19:51:16;;;;;;;19.97;13.47;;;;;;;;;;12921039;22;20383;-90
2024/03/14 19:56:19;;;;;;;20.95;13.73;;;;;;;;;;12919367;22;20807;-82
2024/03/14 20:01:22;;;;;;;20.63;13.82;;;;;;;;;;12930834;22;20382;-90
2024/03/14 20:06:24;;;;;;;19.70;13.32;;;;;;;;;;12930602;22;20374;-90
2024/03/14 20:11:27;;;;;;;22.70;14.60;;;;;;;;;;12922129;22;20379;-91
2024/03/14 20:16:30;;;;;;;24.92;15.18;;;;;;;;;;12924552;22;20386;-91
2024/03/14 20:21:32;;;;;;;27.10;16.38;;;;;;;;;;12924387;22;20855;-91
2024/03/14 20:26:35;;;;;;;23.93;16.30;;;;;;;;;;12925305;22;20367;-90
2024/03/14 20:31:37;;;;;;;24.45;15.32;;;;;;;;;;12922273;22;20742;-90
2024/03/14 20:36:40;;;;;;;21.83;15.07;;;;;;;;;;12923339;22;20866;-90
2024/03/14 20:41:45;;;;;;;23.42;15.88;;;;;;;;;;12928979;22;20382;-90
2024/03/14 20:46:48;;;;;;;25.50;15.98;;;;;;;;;;12927643;22;21014;-90
2024/03/14 20:51:53;;;;;;;24.42;15.82;;;;;;;;;;12923771;22;20386;-91
2024/03/14 20:56:56;;;;;;;22.93;15.37;;;;;;;;;;12922562;22;20378;-91
2024/03/14 21:01:59;;;;;;;21.33;14.30;;;;;;;;;;12926430;22;20607;-91
2024/03/14 21:07:04;;;;;;;20.80;14.35;;;;;;;;;;12922501;22;20375;-90
2024/03/14 21:12:11;;;;;;;20.90;13.03;;;;;;;;;;12926863;22;20386;-91
2024/03/14 21:17:19;;;;;;;20.13;13.30;;;;;;;;;;12928421;22;20390;-91
2024/03/14 21:22:27;;;;;;;20.33;13.63;;;;;;;;;;12925899;22;20382;-90
2024/03/14 21:27:29;;;;;;;17.83;12.50;;;;;;;;;;12946912;22;20362;-90
2024/03/14 21:32:33;;;;;;;17.98;13.20;;;;;;;;;;12926449;22;20367;-89
2024/03/14 21:37:35;;;;;;;17.38;12.02;;;;;;;;;;12925471;22;20432;-90
2024/03/14 21:42:40;;;;;;;19.60;12.52;;;;;;;;;;12926495;22;20378;-90
2024/03/14 21:47:43;;;;;;;17.90;11.93;;;;;;;;;;12925145;22;20378;-91
2024/03/14 21:52:49;;;;;;;17.90;11.73;;;;;;;;;;12925631;22;20382;-90
2024/03/14 21:57:57;;;;;;;17.90;12.25;;;;;;;;;;12924546;22;20861;-90
2024/03/14 22:03:00;;;;;;;18.65;12.80;;;;;;;;;;12942737;22;20708;-91
2024/03/14 22:08:04;;;;;;;19.70;12.53;;;;;;;;;;12928718;22;20402;-89
2024/03/14 22:13:07;;;;;;;16.60;12.32;;;;;;;;;;12929993;22;20432;-90
2024/03/14 22:18:09;;;;;;;18.77;12.30;;;;;;;;;;12927192;22;20440;-91
2024/03/14 22:23:12;;;;;;;19.10;13.67;;;;;;;;;;12924051;22;20920;-90
2024/03/14 22:28:15;;;;;;;20.70;13.07;;;;;;;;;;12933317;22;20469;-89
2024/03/14 22:33:19;;;;;;;22.95;15.07;;;;;;;;;;12928438;22;20396;-89
2024/03/14 22:38:22;;;;;;;21.35;14.82;;;;;;;;;;12933111;22;20838;-90
2024/03/14 22:43:27;;;;;;;21.42;15.15;;;;;;;;;;12932931;22;20393;-90
2024/03/14 22:48:32;;;;;;;20.60;14.57;;;;;;;;;;12935284;22;20396;-90
2024/03/14 22:53:38;;;;;;;21.00;14.33;;;;;;;;;;12934505;22;20412;-90
2024/03/14 22:58:41;;;;;;;23.02;14.10;;;;;;;;;;12934606;22;20440;-89
2024/03/14 23:03:46;;;;;;;21.13;14.63;;;;;;;;;;12935646;22;20366;-90
2024/03/14 23:08:50;;;;;;;20.38;14.15;;;;;;;;;;12936111;22;20428;-90
2024/03/14 23:13:53;;;;;;;22.55;13.77;;;;;;;;;;12933077;22;20366;-90
2024/03/14 23:18:56;;;;;;;19.90;13.95;;;;;;;;;;12934288;22;20758;-90
2024/03/14 23:23:59;;;;;;;19.53;14.27;;;;;;;;;;12932923;22;20366;-90
2024/03/14 23:29:02;;;;;;;20.80;14.07;;;;;;;;;;12933855;22;20684;-90
2024/03/14 23:34:06;;;;;;;19.88;14.20;;;;;;;;;;12941378;22;20367;-89
2024/03/14 23:39:11;;;;;;;18.80;14.35;;;;;;;;;;12937888;22;20382;-90
2024/03/14 23:44:14;;;;;;;20.65;14.57;;;;;;;;;;12929311;22;20460;-90
2024/03/14 23:49:18;;;;;;;22.00;15.33;;;;;;;;;;12907171;22;20375;-89
2024/03/14 23:54:21;;;;;;;22.73;16.40;;;;;;;;;;12934238;22;20362;-90
2024/03/14 23:59:24;;;;;;;25.90;17.05;;;;;;;;;;12934316;22;20387;-89
